createdAt,value
2022-11-23T00:04:28.203Z,9.18
2022-11-23T00:10:51.152Z,9.23
2022-11-23T00:17:11.310Z,9.26
2022-11-23T00:23:34.162Z,9.3
2022-11-23T00:29:54.217Z,9.32
2022-11-23T00:36:17.185Z,9.33
2022-11-23T00:42:38.309Z,9.34
2022-11-23T00:49:00.216Z,9.34
2022-11-23T00:55:20.214Z,9.36
2022-11-23T01:01:43.265Z,9.34
2022-11-23T01:08:03.140Z,9.34
2022-11-23T01:14:26.237Z,9.35
2022-11-23T01:20:46.169Z,9.36
2022-11-23T01:27:09.198Z,9.4
2022-11-23T01:33:29.166Z,9.43
2022-11-23T01:39:52.196Z,9.42
2022-11-23T01:46:12.168Z,9.39
2022-11-23T01:52:35.237Z,9.36
2022-11-23T01:58:55.167Z,9.34
2022-11-23T02:05:18.182Z,9.32
2022-11-23T02:11:38.194Z,9.3
2022-11-23T02:18:01.171Z,9.29
2022-11-23T02:24:21.185Z,9.31
2022-11-23T02:30:44.182Z,9.31
2022-11-23T02:37:04.168Z,9.32
2022-11-23T02:43:27.167Z,9.33
2022-11-23T02:49:47.189Z,9.33
2022-11-23T02:56:10.169Z,9.33
2022-11-23T03:02:30.263Z,9.32
2022-11-23T03:08:53.181Z,9.34
2022-11-23T03:15:13.196Z,9.34
2022-11-23T03:21:36.156Z,9.33
2022-11-23T03:27:56.204Z,9.33
2022-11-23T03:34:19.193Z,9.32
2022-11-23T03:40:39.155Z,9.33
2022-11-23T03:47:02.290Z,9.33
2022-11-23T03:53:22.170Z,9.33
2022-11-23T03:59:45.190Z,9.36
2022-11-23T04:06:05.178Z,9.38
2022-11-23T04:12:28.206Z,9.4
2022-11-23T04:18:48.154Z,9.41
2022-11-23T04:25:11.272Z,9.41
2022-11-23T04:48:34.693Z,9.37
2022-11-23T04:54:54.168Z,9.34
2022-11-23T05:01:17.303Z,9.33
2022-11-23T05:07:37.266Z,9.32
2022-11-23T05:14:00.185Z,9.29
2022-11-23T05:20:20.181Z,9.26
2022-11-23T05:26:43.184Z,9.24
2022-11-23T05:33:03.214Z,9.23
2022-11-23T05:39:26.155Z,9.2
2022-11-23T05:45:46.179Z,9.17
2022-11-23T05:52:09.192Z,9.14
2022-11-23T05:58:29.177Z,9.12
2022-11-23T06:04:52.209Z,9.09
2022-11-23T06:11:12.158Z,9.07
2022-11-23T06:17:35.199Z,9.05
2022-11-23T06:23:55.180Z,9.04
2022-11-23T06:30:18.156Z,9.03
2022-11-23T06:36:38.183Z,9.01
2022-11-23T06:43:01.195Z,9
2022-11-23T06:49:21.200Z,8.99
2022-11-23T06:55:44.166Z,8.98
2022-11-23T07:02:04.176Z,8.98
2022-11-23T07:08:27.228Z,8.96
2022-11-23T07:14:47.213Z,8.96
2022-11-23T07:21:10.236Z,8.97
2022-11-23T07:27:30.158Z,8.99
2022-11-23T07:33:53.190Z,9.03
2022-11-23T07:40:13.247Z,9.08
2022-11-23T07:46:36.143Z,9.04
2022-11-23T07:52:56.178Z,8.99
2022-11-23T07:59:19.226Z,9.01
2022-11-23T08:05:39.159Z,9.04
2022-11-23T08:12:02.231Z,9.1
2022-11-23T08:18:22.218Z,9.21
2022-11-23T08:24:45.177Z,9.29
2022-11-23T08:31:05.200Z,9.36
2022-11-23T08:37:28.199Z,9.44
2022-11-23T08:43:48.203Z,9.53
2022-11-23T08:50:11.147Z,9.56
2022-11-23T08:56:31.186Z,9.6
2022-11-23T09:02:54.177Z,9.7
2022-11-23T09:09:14.129Z,9.8
2022-11-23T09:15:37.230Z,9.9
2022-11-23T09:21:57.180Z,9.96
2022-11-23T09:28:20.205Z,10.06
2022-11-23T09:34:40.174Z,10.12
2022-11-23T09:41:03.213Z,10.2
2022-11-23T09:47:23.222Z,10.4
2022-11-23T09:53:46.225Z,10.54
2022-11-23T10:09:53.103Z,10.5
2022-11-23T10:16:13.145Z,10.53
2022-11-23T10:22:36.166Z,10.48
2022-11-23T10:28:56.203Z,10.43
2022-11-23T10:35:19.141Z,10.41
2022-11-23T10:41:39.183Z,10.44
2022-11-23T10:48:02.199Z,10.75
2022-11-23T10:54:22.141Z,11.03
2022-11-23T11:00:45.213Z,11.43
2022-11-23T11:07:05.255Z,11.85
2022-11-23T11:13:28.208Z,12.05
2022-11-23T11:19:48.152Z,12.01
2022-11-23T11:26:11.213Z,12.28
2022-11-23T11:32:31.178Z,12.46
2022-11-23T11:39:15.338Z,12.44
2022-11-23T11:45:14.241Z,12.33
2022-11-23T11:51:37.167Z,12.04
2022-11-23T11:57:57.158Z,11.7
2022-11-23T12:04:20.229Z,11.52
2022-11-23T12:10:40.141Z,11.49
2022-11-23T12:17:31.153Z,11.52
2022-11-23T12:23:23.233Z,11.66
2022-11-23T12:29:46.152Z,11.92
2022-11-23T12:36:06.183Z,12.33
2022-11-23T12:42:29.407Z,12.58
2022-11-23T12:48:49.408Z,12.62
2022-11-23T12:55:16.548Z,12.28
2022-11-23T13:01:33.592Z,11.94
2022-11-23T13:07:56.206Z,11.74
2022-11-23T13:14:16.149Z,11.68
2022-11-23T13:20:39.325Z,11.7
2022-11-23T13:26:59.183Z,11.89
2022-11-23T13:33:27.090Z,11.93
2022-11-23T13:39:42.219Z,11.93
2022-11-23T13:46:05.186Z,11.81
2022-11-23T13:52:25.180Z,11.57
2022-11-23T13:58:48.171Z,11.38
2022-11-23T14:05:08.154Z,11.33
2022-11-23T14:11:31.189Z,11.3
2022-11-23T14:17:51.185Z,11.24
2022-11-23T14:24:15.824Z,11.07
2022-11-23T14:30:34.148Z,10.91
2022-11-23T14:36:57.215Z,10.72
2022-11-23T14:43:17.179Z,10.58
2022-11-23T14:49:40.147Z,10.44
2022-11-23T14:56:00.224Z,10.35
2022-11-23T15:02:23.197Z,10.3
2022-11-23T15:08:43.191Z,10.28
2022-11-23T15:15:06.241Z,10.28
2022-11-23T15:38:29.178Z,9.92
2022-11-23T15:44:51.113Z,9.74
2022-11-23T15:51:12.179Z,9.6
2022-11-23T15:57:32.185Z,9.48
2022-11-23T16:03:55.145Z,9.4
2022-11-23T16:10:15.155Z,9.3
2022-11-23T16:16:42.779Z,9.23
2022-11-23T16:22:58.181Z,9.13
2022-11-23T16:29:21.165Z,9.03
2022-11-23T16:35:41.205Z,8.9
2022-11-23T16:42:04.259Z,8.76
2022-11-23T16:48:24.260Z,8.72
2022-11-23T16:54:47.217Z,8.65
2022-11-23T17:01:07.352Z,8.61
2022-11-23T17:07:30.263Z,8.57
2022-11-23T17:13:50.192Z,8.56
2022-11-23T17:20:15.632Z,8.57
2022-11-23T17:26:35.210Z,8.55
2022-11-23T17:32:58.192Z,8.42
2022-11-23T17:39:18.196Z,8.33
2022-11-23T17:45:41.240Z,8.28
2022-11-23T17:52:01.256Z,8.26
2022-11-23T17:58:24.202Z,8.24
2022-11-23T18:04:44.163Z,8.18
2022-11-23T18:11:07.218Z,8.17
2022-11-23T18:17:27.164Z,8.14
2022-11-23T18:23:50.173Z,8.11
2022-11-23T18:30:10.517Z,8.11
2022-11-23T18:36:33.210Z,8.12
2022-11-23T18:42:53.254Z,8.14
2022-11-23T18:49:16.395Z,8.16
2022-11-23T18:55:36.162Z,8.15
2022-11-23T19:01:59.226Z,8.17
2022-11-23T19:08:19.217Z,8.18
2022-11-23T19:14:42.206Z,8.19
2022-11-23T19:21:02.166Z,8.1
2022-11-23T19:27:25.233Z,7.95
2022-11-23T19:33:45.212Z,7.83
2022-11-23T19:40:08.149Z,7.73
2022-11-23T19:46:28.246Z,7.67
2022-11-23T19:53:11.077Z,7.63
2022-11-23T19:59:11.476Z,7.57
2022-11-23T20:05:34.243Z,7.46
2022-11-23T20:11:54.206Z,7.35
2022-11-23T20:18:17.181Z,7.24
2022-11-23T20:24:37.236Z,7.12
2022-11-23T20:40:12.069Z,6.83
2022-11-23T20:46:54.058Z,6.72
2022-11-23T20:52:55.195Z,6.6
2022-11-23T20:59:15.302Z,6.5
2022-11-23T21:05:38.206Z,6.45
2022-11-23T21:11:58.213Z,6.43
2022-11-23T21:18:21.811Z,6.37
2022-11-23T21:24:42.259Z,6.3
2022-11-23T21:31:05.293Z,6.22
2022-11-23T21:37:25.199Z,6.12
2022-11-23T21:43:48.236Z,6.06
2022-11-23T21:50:08.172Z,6.01
2022-11-23T21:56:31.257Z,6.03
2022-11-23T22:02:51.221Z,6.04
2022-11-23T22:09:14.183Z,6.08
2022-11-23T22:15:34.262Z,6.15
2022-11-23T22:21:57.175Z,6.22
2022-11-23T22:28:17.164Z,6.29
2022-11-23T22:34:40.224Z,6.36
2022-11-23T22:41:00.196Z,6.44
2022-11-23T22:47:23.209Z,6.46
2022-11-23T22:53:44.729Z,6.46
2022-11-23T23:00:06.145Z,6.42
2022-11-23T23:23:03.159Z,6.05
2022-11-23T23:29:23.188Z,6.07
2022-11-23T23:35:46.169Z,6
2022-11-23T23:42:06.303Z,5.94
2022-11-23T23:48:29.161Z,5.91
2022-11-23T23:54:49.262Z,5.9
